sensor_id;sensor_type;location;lat;lon;timestamp;pressure;altitude;pressure_sealevel;temperature;humidity
73103;BME280;61294;65.988;29.172;2023-06-24T00:01:40;98217.44;;;12.73;62.89
73103;BME280;61294;65.988;29.172;2023-06-24T00:04:05;98206.22;;;12.62;63.29
73103;BME280;61294;65.988;29.172;2023-06-24T00:06:31;98208.09;;;12.55;63.37
73103;BME280;61294;65.988;29.172;2023-06-24T00:08:57;98220.31;;;12.60;64.10
73103;BME280;61294;65.988;29.172;2023-06-24T00:11:28;98237.69;;;12.72;63.47
73103;BME280;61294;65.988;29.172;2023-06-24T00:13:57;98214.88;;;12.68;63.75
73103;BME280;61294;65.988;29.172;2023-06-24T00:16:32;98211.56;;;12.58;63.87
73103;BME280;61294;65.988;29.172;2023-06-24T00:18:58;98237.00;;;12.64;64.07
73103;BME280;61294;65.988;29.172;2023-06-24T00:21:26;98240.56;;;12.62;63.82
73103;BME280;61294;65.988;29.172;2023-06-24T00:24:01;98235.38;;;12.55;63.89
73103;BME280;61294;65.988;29.172;2023-06-24T00:26:33;98212.66;;;12.47;64.28
73103;BME280;61294;65.988;29.172;2023-06-24T00:28:59;98218.22;;;12.33;64.20
73103;BME280;61294;65.988;29.172;2023-06-24T00:31:25;98216.50;;;12.30;64.10
73103;BME280;61294;65.988;29.172;2023-06-24T00:33:51;98220.03;;;12.29;64.27
73103;BME280;61294;65.988;29.172;2023-06-24T00:36:18;98209.91;;;12.06;64.20
73103;BME280;61294;65.988;29.172;2023-06-24T00:38:44;98246.47;;;12.28;64.64
73103;BME280;61294;65.988;29.172;2023-06-24T00:41:10;98242.94;;;12.29;65.17
73103;BME280;61294;65.988;29.172;2023-06-24T00:43:36;98242.00;;;12.31;64.81
73103;BME280;61294;65.988;29.172;2023-06-24T00:46:04;98224.53;;;12.24;65.04
73103;BME280;61294;65.988;29.172;2023-06-24T00:48:32;98233.47;;;12.17;65.10
73103;BME280;61294;65.988;29.172;2023-06-24T00:50:58;98213.41;;;12.06;65.68
73103;BME280;61294;65.988;29.172;2023-06-24T00:53:25;98223.66;;;12.23;65.35
73103;BME280;61294;65.988;29.172;2023-06-24T00:55:51;98219.41;;;12.16;65.04
73103;BME280;61294;65.988;29.172;2023-06-24T00:58:20;98223.84;;;12.13;65.52
73103;BME280;61294;65.988;29.172;2023-06-24T01:00:47;98230.88;;;12.14;65.12
73103;BME280;61294;65.988;29.172;2023-06-24T01:03:23;98222.16;;;12.10;65.25
73103;BME280;61294;65.988;29.172;2023-06-24T01:05:50;98217.75;;;12.09;65.77
73103;BME280;61294;65.988;29.172;2023-06-24T01:08:18;98221.38;;;12.03;65.79
73103;BME280;61294;65.988;29.172;2023-06-24T01:10:47;98223.94;;;12.08;65.57
73103;BME280;61294;65.988;29.172;2023-06-24T01:13:13;98231.78;;;12.11;66.25
73103;BME280;61294;65.988;29.172;2023-06-24T01:15:39;98215.44;;;11.89;66.01
73103;BME280;61294;65.988;29.172;2023-06-24T01:18:11;98217.13;;;11.95;66.38
73103;BME280;61294;65.988;29.172;2023-06-24T01:20:55;98206.63;;;11.88;66.70
73103;BME280;61294;65.988;29.172;2023-06-24T01:23:53;98243.31;;;12.07;66.36
73103;BME280;61294;65.988;29.172;2023-06-24T01:29:42;98238.13;;;12.02;66.56
73103;BME280;61294;65.988;29.172;2023-06-24T01:32:29;98194.63;;;11.70;66.19
73103;BME280;61294;65.988;29.172;2023-06-24T01:35:11;98210.22;;;11.86;67.41
73103;BME280;61294;65.988;29.172;2023-06-24T01:37:43;98212.75;;;11.92;67.48
73103;BME280;61294;65.988;29.172;2023-06-24T01:40:20;98234.41;;;12.13;66.77
73103;BME280;61294;65.988;29.172;2023-06-24T01:42:49;98198.69;;;11.91;66.64
73103;BME280;61294;65.988;29.172;2023-06-24T01:45:20;98231.09;;;12.01;66.72
73103;BME280;61294;65.988;29.172;2023-06-24T01:47:48;98200.63;;;11.82;66.71
73103;BME280;61294;65.988;29.172;2023-06-24T01:50:20;98227.50;;;12.05;67.42
73103;BME280;61294;65.988;29.172;2023-06-24T01:52:50;98195.19;;;11.89;67.35
73103;BME280;61294;65.988;29.172;2023-06-24T01:55:20;98219.78;;;11.93;67.11
73103;BME280;61294;65.988;29.172;2023-06-24T01:57:48;98211.09;;;11.86;67.29
73103;BME280;61294;65.988;29.172;2023-06-24T02:00:17;98199.44;;;12.00;67.66
73103;BME280;61294;65.988;29.172;2023-06-24T02:02:44;98197.66;;;12.02;67.19
73103;BME280;61294;65.988;29.172;2023-06-24T02:05:11;98211.59;;;12.10;67.73
73103;BME280;61294;65.988;29.172;2023-06-24T02:07:40;98201.16;;;12.02;67.73
73103;BME280;61294;65.988;29.172;2023-06-24T02:10:08;98223.66;;;12.23;67.60
73103;BME280;61294;65.988;29.172;2023-06-24T02:12:35;98199.06;;;12.20;67.68
73103;BME280;61294;65.988;29.172;2023-06-24T02:15:02;98214.72;;;12.31;67.10
73103;BME280;61294;65.988;29.172;2023-06-24T02:17:30;98213.72;;;12.38;67.89
73103;BME280;61294;65.988;29.172;2023-06-24T02:19:59;98220.56;;;12.48;67.15
73103;BME280;61294;65.988;29.172;2023-06-24T02:22:29;98212.00;;;12.35;66.29
73103;BME280;61294;65.988;29.172;2023-06-24T02:24:56;98211.06;;;12.38;65.70
73103;BME280;61294;65.988;29.172;2023-06-24T02:27:23;98234.78;;;12.41;65.23
73103;BME280;61294;65.988;29.172;2023-06-24T02:29:51;98228.63;;;12.40;65.57
73103;BME280;61294;65.988;29.172;2023-06-24T02:32:18;98238.34;;;12.40;64.93
73103;BME280;61294;65.988;29.172;2023-06-24T02:34:56;98217.22;;;12.38;65.52
73103;BME280;61294;65.988;29.172;2023-06-24T02:37:33;98241.53;;;12.57;66.56
73103;BME280;61294;65.988;29.172;2023-06-24T02:39:59;98220.53;;;12.50;67.20
73103;BME280;61294;65.988;29.172;2023-06-24T02:42:27;98223.06;;;12.56;66.10
73103;BME280;61294;65.988;29.172;2023-06-24T02:44:56;98216.88;;;12.57;64.95
73103;BME280;61294;65.988;29.172;2023-06-24T02:47:23;98240.47;;;12.66;65.70
73103;BME280;61294;65.988;29.172;2023-06-24T02:49:50;98244.56;;;12.81;65.90
73103;BME280;61294;65.988;29.172;2023-06-24T02:52:17;98216.53;;;12.75;65.72
73103;BME280;61294;65.988;29.172;2023-06-24T02:54:44;98212.16;;;12.73;65.21
73103;BME280;61294;65.988;29.172;2023-06-24T02:57:11;98222.69;;;12.74;65.63
73103;BME280;61294;65.988;29.172;2023-06-24T02:59:41;98219.19;;;12.72;64.81
73103;BME280;61294;65.988;29.172;2023-06-24T03:02:07;98224.38;;;12.78;65.86
73103;BME280;61294;65.988;29.172;2023-06-24T03:04:34;98238.28;;;12.88;65.46
73103;BME280;61294;65.988;29.172;2023-06-24T03:07:01;98229.34;;;12.92;66.30
73103;BME280;61294;65.988;29.172;2023-06-24T03:09:28;98224.31;;;12.82;66.42
73103;BME280;61294;65.988;29.172;2023-06-24T03:11:54;98227.06;;;12.77;65.10
73103;BME280;61294;65.988;29.172;2023-06-24T03:14:20;98212.22;;;12.68;65.78
73103;BME280;61294;65.988;29.172;2023-06-24T03:16:46;98251.50;;;12.88;66.47
73103;BME280;61294;65.988;29.172;2023-06-24T03:19:12;98219.19;;;12.72;67.08
73103;BME280;61294;65.988;29.172;2023-06-24T03:21:38;98227.84;;;12.81;66.80
73103;BME280;61294;65.988;29.172;2023-06-24T03:24:04;98216.44;;;12.78;66.74
73103;BME280;61294;65.988;29.172;2023-06-24T03:26:40;98216.53;;;12.74;66.46
73103;BME280;61294;65.988;29.172;2023-06-24T03:29:06;98236.56;;;12.86;67.04
73103;BME280;61294;65.988;29.172;2023-06-24T03:31:38;98245.16;;;12.97;66.20
73103;BME280;61294;65.988;29.172;2023-06-24T03:34:11;98222.34;;;12.91;66.81
73103;BME280;61294;65.988;29.172;2023-06-24T03:36:37;98227.50;;;12.98;66.89
73103;BME280;61294;65.988;29.172;2023-06-24T03:39:04;98220.28;;;13.06;66.53
73103;BME280;61294;65.988;29.172;2023-06-24T03:41:30;98240.47;;;13.10;66.38
73103;BME280;61294;65.988;29.172;2023-06-24T03:43:56;98218.78;;;12.94;66.79
73103;BME280;61294;65.988;29.172;2023-06-24T03:46:22;98236.28;;;12.98;67.34
73103;BME280;61294;65.988;29.172;2023-06-24T03:48:50;98224.03;;;12.95;66.62
73103;BME280;61294;65.988;29.172;2023-06-24T03:51:19;98225.47;;;13.10;66.32
73103;BME280;61294;65.988;29.172;2023-06-24T03:53:45;98246.41;;;13.21;66.21
73103;BME280;61294;65.988;29.172;2023-06-24T03:56:11;98232.59;;;13.07;66.17
73103;BME280;61294;65.988;29.172;2023-06-24T03:58:37;98232.53;;;13.10;66.08
73103;BME280;61294;65.988;29.172;2023-06-24T04:01:03;98248.81;;;13.30;65.69
73103;BME280;61294;65.988;29.172;2023-06-24T04:03:29;98224.94;;;13.37;65.54
73103;BME280;61294;65.988;29.172;2023-06-24T04:06:05;98225.56;;;13.46;65.59
73103;BME280;61294;65.988;29.172;2023-06-24T04:08:36;98234.56;;;13.77;66.04
73103;BME280;61294;65.988;29.172;2023-06-24T04:11:05;98269.16;;;14.07;65.23
73103;BME280;61294;65.988;29.172;2023-06-24T04:13:47;98243.34;;;14.13;64.99
73103;BME280;61294;65.988;29.172;2023-06-24T04:16:17;98240.66;;;14.15;64.31
73103;BME280;61294;65.988;29.172;2023-06-24T04:18:45;98235.63;;;14.06;64.63
73103;BME280;61294;65.988;29.172;2023-06-24T04:21:13;98239.16;;;14.05;65.17
73103;BME280;61294;65.988;29.172;2023-06-24T04:23:40;98234.63;;;14.10;64.53
73103;BME280;61294;65.988;29.172;2023-06-24T04:26:16;98242.97;;;14.29;63.87
73103;BME280;61294;65.988;29.172;2023-06-24T04:28:57;98222.69;;;14.28;65.24
73103;BME280;61294;65.988;29.172;2023-06-24T04:31:25;98241.75;;;14.41;64.68
73103;BME280;61294;65.988;29.172;2023-06-24T04:33:55;98248.84;;;14.40;64.65
73103;BME280;61294;65.988;29.172;2023-06-24T04:36:30;98238.47;;;14.32;65.11
73103;BME280;61294;65.988;29.172;2023-06-24T04:39:05;98246.38;;;14.34;64.39
73103;BME280;61294;65.988;29.172;2023-06-24T04:41:39;98220.00;;;14.29;64.97
73103;BME280;61294;65.988;29.172;2023-06-24T04:44:08;98277.22;;;14.71;64.37
73103;BME280;61294;65.988;29.172;2023-06-24T04:46:51;98271.84;;;14.74;65.15
73103;BME280;61294;65.988;29.172;2023-06-24T04:49:25;98250.06;;;14.63;64.50
73103;BME280;61294;65.988;29.172;2023-06-24T04:51:54;98252.03;;;14.53;64.93
73103;BME280;61294;65.988;29.172;2023-06-24T04:54:22;98265.63;;;14.41;65.44
73103;BME280;61294;65.988;29.172;2023-06-24T04:56:57;98258.88;;;14.29;65.70
73103;BME280;61294;65.988;29.172;2023-06-24T04:59:26;98258.56;;;14.41;65.50
73103;BME280;61294;65.988;29.172;2023-06-24T05:02:10;98243.41;;;14.45;65.77
73103;BME280;61294;65.988;29.172;2023-06-24T05:04:36;98250.47;;;14.46;66.15
73103;BME280;61294;65.988;29.172;2023-06-24T05:07:07;98258.00;;;14.28;66.46
73103;BME280;61294;65.988;29.172;2023-06-24T05:09:33;98262.41;;;14.29;66.54
73103;BME280;61294;65.988;29.172;2023-06-24T05:12:06;98255.44;;;14.25;67.21
73103;BME280;61294;65.988;29.172;2023-06-24T05:14:36;98239.34;;;14.33;66.97
73103;BME280;61294;65.988;29.172;2023-06-24T05:17:03;98273.53;;;14.77;66.65
73103;BME280;61294;65.988;29.172;2023-06-24T05:19:29;98257.75;;;14.72;66.47
73103;BME280;61294;65.988;29.172;2023-06-24T05:21:55;98244.97;;;14.54;66.73
73103;BME280;61294;65.988;29.172;2023-06-24T05:24:21;98242.97;;;14.63;68.25
73103;BME280;61294;65.988;29.172;2023-06-24T05:26:51;98272.50;;;14.82;67.68
73103;BME280;61294;65.988;29.172;2023-06-24T05:29:17;98239.44;;;14.63;67.34
73103;BME280;61294;65.988;29.172;2023-06-24T05:31:43;98262.50;;;14.59;67.06
73103;BME280;61294;65.988;29.172;2023-06-24T05:34:09;98255.81;;;14.44;67.14
73103;BME280;61294;65.988;29.172;2023-06-24T05:36:38;98284.41;;;14.66;66.52
73103;BME280;61294;65.988;29.172;2023-06-24T05:39:04;98259.38;;;14.78;67.08
73103;BME280;61294;65.988;29.172;2023-06-24T05:41:33;98253.94;;;14.82;66.57
73103;BME280;61294;65.988;29.172;2023-06-24T05:44:06;98287.75;;;15.06;66.60
73103;BME280;61294;65.988;29.172;2023-06-24T05:46:32;98285.16;;;15.04;67.11
73103;BME280;61294;65.988;29.172;2023-06-24T05:49:01;98252.19;;;14.81;67.40
73103;BME280;61294;65.988;29.172;2023-06-24T05:51:26;98278.56;;;14.86;68.00
73103;BME280;61294;65.988;29.172;2023-06-24T05:53:52;98264.34;;;14.89;67.86
73103;BME280;61294;65.988;29.172;2023-06-24T05:56:20;98281.59;;;15.05;68.14
73103;BME280;61294;65.988;29.172;2023-06-24T05:58:46;98291.19;;;15.09;67.98
73103;BME280;61294;65.988;29.172;2023-06-24T06:01:12;98290.31;;;15.09;67.93
73103;BME280;61294;65.988;29.172;2023-06-24T06:03:37;98292.06;;;15.10;67.69
73103;BME280;61294;65.988;29.172;2023-06-24T06:06:04;98295.41;;;15.16;68.01
73103;BME280;61294;65.988;29.172;2023-06-24T06:08:29;98294.81;;;15.36;67.43
73103;BME280;61294;65.988;29.172;2023-06-24T06:10:55;98298.53;;;15.61;66.51
73103;BME280;61294;65.988;29.172;2023-06-24T06:13:21;98256.25;;;15.53;67.11
73103;BME280;61294;65.988;29.172;2023-06-24T06:15:47;98293.59;;;15.77;66.48
73103;BME280;61294;65.988;29.172;2023-06-24T06:18:13;98293.44;;;15.83;66.18
73103;BME280;61294;65.988;29.172;2023-06-24T06:20:39;98295.84;;;15.91;64.91
73103;BME280;61294;65.988;29.172;2023-06-24T06:23:06;98293.78;;;16.00;65.44
73103;BME280;61294;65.988;29.172;2023-06-24T06:25:32;98259.41;;;15.94;65.26
73103;BME280;61294;65.988;29.172;2023-06-24T06:27:58;98282.63;;;16.16;64.73
73103;BME280;61294;65.988;29.172;2023-06-24T06:30:24;98300.31;;;16.44;64.62
73103;BME280;61294;65.988;29.172;2023-06-24T06:32:49;98299.63;;;16.64;63.45
73103;BME280;61294;65.988;29.172;2023-06-24T06:35:15;98303.78;;;16.98;62.23
73103;BME280;61294;65.988;29.172;2023-06-24T06:37:41;98291.53;;;17.17;60.26
73103;BME280;61294;65.988;29.172;2023-06-24T06:40:07;98302.41;;;17.35;61.14
73103;BME280;61294;65.988;29.172;2023-06-24T06:42:33;98303.28;;;17.35;60.60
73103;BME280;61294;65.988;29.172;2023-06-24T06:44:58;98302.69;;;17.27;59.46
73103;BME280;61294;65.988;29.172;2023-06-24T06:47:24;98306.91;;;17.33;60.27
73103;BME280;61294;65.988;29.172;2023-06-24T06:49:50;98308.53;;;17.37;60.65
73103;BME280;61294;65.988;29.172;2023-06-24T06:52:16;98301.72;;;17.30;60.78
73103;BME280;61294;65.988;29.172;2023-06-24T06:54:42;98303.00;;;17.19;60.53
73103;BME280;61294;65.988;29.172;2023-06-24T06:57:07;98305.41;;;17.02;61.92
73103;BME280;61294;65.988;29.172;2023-06-24T06:59:33;98311.31;;;16.85;61.78
73103;BME280;61294;65.988;29.172;2023-06-24T07:01:59;98309.13;;;16.71;61.86
73103;BME280;61294;65.988;29.172;2023-06-24T07:04:25;98314.56;;;16.68;61.66
73103;BME280;61294;65.988;29.172;2023-06-24T07:06:51;98313.63;;;16.69;62.03
73103;BME280;61294;65.988;29.172;2023-06-24T07:09:18;98304.03;;;16.90;62.61
73103;BME280;61294;65.988;29.172;2023-06-24T07:11:44;98313.28;;;17.05;61.28
73103;BME280;61294;65.988;29.172;2023-06-24T07:14:09;98308.25;;;17.21;60.82
73103;BME280;61294;65.988;29.172;2023-06-24T07:16:35;98311.78;;;17.45;61.30
73103;BME280;61294;65.988;29.172;2023-06-24T07:19:01;98305.28;;;17.76;61.05
73103;BME280;61294;65.988;29.172;2023-06-24T07:21:27;98277.59;;;18.02;59.70
73103;BME280;61294;65.988;29.172;2023-06-24T07:23:53;98308.56;;;18.27;59.29
73103;BME280;61294;65.988;29.172;2023-06-24T07:26:19;98286.19;;;18.31;58.00
73103;BME280;61294;65.988;29.172;2023-06-24T07:28:44;98277.41;;;18.50;58.94
73103;BME280;61294;65.988;29.172;2023-06-24T07:31:11;98311.13;;;18.93;56.21
73103;BME280;61294;65.988;29.172;2023-06-24T07:33:37;98262.75;;;18.80;55.46
73103;BME280;61294;65.988;29.172;2023-06-24T07:36:03;98305.28;;;19.25;54.98
73103;BME280;61294;65.988;29.172;2023-06-24T07:38:28;98301.84;;;19.42;55.47
73103;BME280;61294;65.988;29.172;2023-06-24T07:40:55;98317.31;;;19.54;53.94
73103;BME280;61294;65.988;29.172;2023-06-24T07:43:21;98315.78;;;19.67;53.35
73103;BME280;61294;65.988;29.172;2023-06-24T07:45:47;98271.59;;;19.41;51.94
73103;BME280;61294;65.988;29.172;2023-06-24T07:48:13;98315.84;;;19.66;52.42
73103;BME280;61294;65.988;29.172;2023-06-24T07:50:39;98280.16;;;19.29;50.96
73103;BME280;61294;65.988;29.172;2023-06-24T07:53:05;98321.97;;;19.49;53.65
73103;BME280;61294;65.988;29.172;2023-06-24T07:55:31;98272.25;;;19.07;53.11
73103;BME280;61294;65.988;29.172;2023-06-24T07:57:56;98308.50;;;19.12;53.88
73103;BME280;61294;65.988;29.172;2023-06-24T08:00:24;98317.78;;;19.43;56.18
73103;BME280;61294;65.988;29.172;2023-06-24T08:02:50;98273.47;;;19.39;55.47
73103;BME280;61294;65.988;29.172;2023-06-24T08:05:16;98279.91;;;19.54;53.87
73103;BME280;61294;65.988;29.172;2023-06-24T08:07:44;98268.72;;;19.46;54.16
73103;BME280;61294;65.988;29.172;2023-06-24T08:10:09;98261.84;;;19.21;53.77
73103;BME280;61294;65.988;29.172;2023-06-24T08:12:35;98311.00;;;19.55;53.82
73103;BME280;61294;65.988;29.172;2023-06-24T08:15:01;98281.97;;;19.66;53.83
73103;BME280;61294;65.988;29.172;2023-06-24T08:17:27;98305.31;;;19.82;54.10
73103;BME280;61294;65.988;29.172;2023-06-24T08:19:53;98269.00;;;19.59;54.44
73103;BME280;61294;65.988;29.172;2023-06-24T08:22:19;98308.84;;;20.02;54.41
73103;BME280;61294;65.988;29.172;2023-06-24T08:24:45;98283.13;;;19.99;53.58
73103;BME280;61294;65.988;29.172;2023-06-24T08:27:10;98318.81;;;20.17;52.26
73103;BME280;61294;65.988;29.172;2023-06-24T08:29:36;98319.13;;;20.28;53.91
73103;BME280;61294;65.988;29.172;2023-06-24T08:32:04;98328.19;;;20.43;53.11
73103;BME280;61294;65.988;29.172;2023-06-24T08:34:33;98302.94;;;20.49;51.17
73103;BME280;61294;65.988;29.172;2023-06-24T08:36:58;98304.84;;;20.47;51.75
73103;BME280;61294;65.988;29.172;2023-06-24T08:39:24;98304.41;;;20.74;49.78
73103;BME280;61294;65.988;29.172;2023-06-24T08:41:50;98335.22;;;21.16;51.84
73103;BME280;61294;65.988;29.172;2023-06-24T08:44:16;98330.59;;;21.19;49.69
73103;BME280;61294;65.988;29.172;2023-06-24T08:46:42;98298.63;;;21.66;50.47
73103;BME280;61294;65.988;29.172;2023-06-24T08:49:25;98323.50;;;21.52;47.59
73103;BME280;61294;65.988;29.172;2023-06-24T08:52:04;98322.44;;;20.70;49.16
73103;BME280;61294;65.988;29.172;2023-06-24T08:54:33;98325.69;;;20.58;50.40
73103;BME280;61294;65.988;29.172;2023-06-24T08:56:59;98311.63;;;20.54;50.09
73103;BME280;61294;65.988;29.172;2023-06-24T08:59:27;98340.38;;;20.85;49.66
73103;BME280;61294;65.988;29.172;2023-06-24T09:01:53;98333.78;;;20.75;49.28
73103;BME280;61294;65.988;29.172;2023-06-24T09:04:18;98311.19;;;20.81;50.22
73103;BME280;61294;65.988;29.172;2023-06-24T09:06:44;98320.50;;;21.74;50.39
73103;BME280;61294;65.988;29.172;2023-06-24T09:09:23;98337.03;;;21.82;51.06
73103;BME280;61294;65.988;29.172;2023-06-24T09:11:55;98309.59;;;22.25;50.47
73103;BME280;61294;65.988;29.172;2023-06-24T09:14:23;98309.69;;;22.70;48.42
73103;BME280;61294;65.988;29.172;2023-06-24T09:16:59;98319.88;;;23.38;48.07
73103;BME280;61294;65.988;29.172;2023-06-24T09:19:28;98332.44;;;23.81;46.57
73103;BME280;61294;65.988;29.172;2023-06-24T09:21:55;98322.88;;;24.19;46.90
73103;BME280;61294;65.988;29.172;2023-06-24T09:24:27;98309.78;;;23.71;46.13
73103;BME280;61294;65.988;29.172;2023-06-24T09:26:55;98333.06;;;23.57;44.59
73103;BME280;61294;65.988;29.172;2023-06-24T09:29:28;98318.84;;;22.82;44.83
73103;BME280;61294;65.988;29.172;2023-06-24T09:31:54;98318.81;;;23.55;44.42
73103;BME280;61294;65.988;29.172;2023-06-24T09:34:26;98336.09;;;24.36;43.65
73103;BME280;61294;65.988;29.172;2023-06-24T09:36:54;98327.59;;;24.70;42.51
73103;BME280;61294;65.988;29.172;2023-06-24T09:39:21;98299.22;;;24.91;44.35
73103;BME280;61294;65.988;29.172;2023-06-24T09:41:51;98302.47;;;25.35;42.47
73103;BME280;61294;65.988;29.172;2023-06-24T09:44:17;98330.28;;;25.61;41.53
73103;BME280;61294;65.988;29.172;2023-06-24T09:46:46;98303.63;;;25.70;40.79
73103;BME280;61294;65.988;29.172;2023-06-24T09:49:12;98329.53;;;26.09;39.48
73103;BME280;61294;65.988;29.172;2023-06-24T09:51:39;98313.94;;;27.21;38.06
73103;BME280;61294;65.988;29.172;2023-06-24T09:54:06;98312.81;;;29.33;34.42
73103;BME280;61294;65.988;29.172;2023-06-24T09:56:36;98327.69;;;35.09;27.57
73103;BME280;61294;65.988;29.172;2023-06-24T09:59:04;98329.88;;;37.89;23.76
73103;BME280;61294;65.988;29.172;2023-06-24T10:01:38;98331.97;;;39.68;23.09
73103;BME280;61294;65.988;29.172;2023-06-24T10:04:05;98335.91;;;40.35;20.41
73103;BME280;61294;65.988;29.172;2023-06-24T10:06:32;98328.22;;;40.93;18.44
73103;BME280;61294;65.988;29.172;2023-06-24T10:08:59;98328.44;;;40.23;19.97
73103;BME280;61294;65.988;29.172;2023-06-24T10:11:25;98329.88;;;40.67;19.25
73103;BME280;61294;65.988;29.172;2023-06-24T10:13:52;98318.63;;;40.13;19.94
73103;BME280;61294;65.988;29.172;2023-06-24T10:16:18;98317.38;;;41.24;19.31
73103;BME280;61294;65.988;29.172;2023-06-24T10:18:45;98320.63;;;42.66;19.11
73103;BME280;61294;65.988;29.172;2023-06-24T10:21:11;98304.97;;;43.10;16.84
73103;BME280;61294;65.988;29.172;2023-06-24T10:23:41;98315.91;;;43.74;16.78
73103;BME280;61294;65.988;29.172;2023-06-24T10:26:25;98331.03;;;44.15;16.51
73103;BME280;61294;65.988;29.172;2023-06-24T10:29:30;98310.97;;;43.57;16.67
73103;BME280;61294;65.988;29.172;2023-06-24T10:31:56;98320.81;;;43.97;15.92
73103;BME280;61294;65.988;29.172;2023-06-24T10:34:30;98314.13;;;43.61;15.76
73103;BME280;61294;65.988;29.172;2023-06-24T10:39:48;98306.31;;;43.51;16.19
73103;BME280;61294;65.988;29.172;2023-06-24T10:44:50;98330.78;;;44.84;13.98
73103;BME280;61294;65.988;29.172;2023-06-24T10:47:17;98327.31;;;44.03;15.49
73103;BME280;61294;65.988;29.172;2023-06-24T10:49:42;98330.44;;;44.32;15.90
73103;BME280;61294;65.988;29.172;2023-06-24T10:52:12;98310.19;;;44.43;15.15
73103;BME280;61294;65.988;29.172;2023-06-24T10:54:39;98327.22;;;42.97;16.94
73103;BME280;61294;65.988;29.172;2023-06-24T10:57:07;98327.66;;;44.13;14.02
73103;BME280;61294;65.988;29.172;2023-06-24T11:02:09;98315.66;;;43.75;15.40
73103;BME280;61294;65.988;29.172;2023-06-24T11:04:49;98328.28;;;43.53;14.67
73103;BME280;61294;65.988;29.172;2023-06-24T11:07:17;98315.56;;;44.07;15.62
73103;BME280;61294;65.988;29.172;2023-06-24T11:09:58;98335.81;;;45.06;14.99
73103;BME280;61294;65.988;29.172;2023-06-24T11:12:26;98321.16;;;46.05;14.01
73103;BME280;61294;65.988;29.172;2023-06-24T11:15:00;98336.78;;;45.23;13.92
73103;BME280;61294;65.988;29.172;2023-06-24T11:17:26;98329.28;;;45.12;14.11
73103;BME280;61294;65.988;29.172;2023-06-24T11:19:53;98321.22;;;44.12;14.17
73103;BME280;61294;65.988;29.172;2023-06-24T11:22:19;98314.56;;;45.82;13.76
73103;BME280;61294;65.988;29.172;2023-06-24T11:24:45;98307.66;;;45.85;13.97
73103;BME280;61294;65.988;29.172;2023-06-24T11:27:11;98325.47;;;45.48;14.70
73103;BME280;61294;65.988;29.172;2023-06-24T11:29:36;98330.03;;;45.90;13.23
73103;BME280;61294;65.988;29.172;2023-06-24T11:32:08;98323.47;;;46.08;13.33
73103;BME280;61294;65.988;29.172;2023-06-24T11:34:35;98317.66;;;46.10;13.24
73103;BME280;61294;65.988;29.172;2023-06-24T11:37:17;98325.91;;;45.22;13.75
73103;BME280;61294;65.988;29.172;2023-06-24T11:39:44;98317.22;;;45.30;14.00
73103;BME280;61294;65.988;29.172;2023-06-24T11:42:11;98336.19;;;45.33;14.03
73103;BME280;61294;65.988;29.172;2023-06-24T11:44:43;98332.72;;;46.38;13.32
73103;BME280;61294;65.988;29.172;2023-06-24T11:47:10;98323.03;;;45.76;13.56
73103;BME280;61294;65.988;29.172;2023-06-24T11:49:50;98321.94;;;46.41;12.72
73103;BME280;61294;65.988;29.172;2023-06-24T11:52:17;98323.75;;;45.83;14.27
73103;BME280;61294;65.988;29.172;2023-06-24T11:54:43;98319.41;;;45.75;12.74
73103;BME280;61294;65.988;29.172;2023-06-24T11:57:09;98330.81;;;46.26;12.97
73103;BME280;61294;65.988;29.172;2023-06-24T11:59:35;98312.25;;;46.73;13.68
73103;BME280;61294;65.988;29.172;2023-06-24T12:02:01;98321.94;;;45.53;12.93
73103;BME280;61294;65.988;29.172;2023-06-24T12:04:30;98322.63;;;46.48;13.36
73103;BME280;61294;65.988;29.172;2023-06-24T12:06:56;98328.72;;;46.33;13.07
73103;BME280;61294;65.988;29.172;2023-06-24T12:09:22;98331.06;;;46.25;12.59
73103;BME280;61294;65.988;29.172;2023-06-24T12:11:48;98330.00;;;45.19;13.43
73103;BME280;61294;65.988;29.172;2023-06-24T12:14:14;98329.22;;;45.54;13.01
73103;BME280;61294;65.988;29.172;2023-06-24T12:16:40;98327.00;;;46.73;12.97
73103;BME280;61294;65.988;29.172;2023-06-24T12:19:07;98323.34;;;47.35;12.69
73103;BME280;61294;65.988;29.172;2023-06-24T12:21:34;98325.84;;;46.86;12.43
73103;BME280;61294;65.988;29.172;2023-06-24T12:24:00;98313.06;;;46.73;12.34
73103;BME280;61294;65.988;29.172;2023-06-24T12:26:26;98333.59;;;46.26;12.94
73103;BME280;61294;65.988;29.172;2023-06-24T12:28:55;98308.38;;;45.80;13.03
73103;BME280;61294;65.988;29.172;2023-06-24T12:31:24;98323.50;;;41.94;14.15
73103;BME280;61294;65.988;29.172;2023-06-24T12:33:53;98319.16;;;39.32;16.28
73103;BME280;61294;65.988;29.172;2023-06-24T12:36:19;98326.03;;;37.45;18.34
73103;BME280;61294;65.988;29.172;2023-06-24T12:38:45;98304.38;;;41.72;15.39
73103;BME280;61294;65.988;29.172;2023-06-24T12:41:11;98315.13;;;43.41;14.16
73103;BME280;61294;65.988;29.172;2023-06-24T12:43:39;98317.13;;;44.94;14.13
73103;BME280;61294;65.988;29.172;2023-06-24T12:46:13;98328.16;;;37.73;17.20
73103;BME280;61294;65.988;29.172;2023-06-24T12:48:42;98317.00;;;41.48;15.95
73103;BME280;61294;65.988;29.172;2023-06-24T12:51:09;98321.00;;;43.08;13.86
73103;BME280;61294;65.988;29.172;2023-06-24T12:53:42;98317.28;;;43.46;14.36
73103;BME280;61294;65.988;29.172;2023-06-24T12:56:10;98322.97;;;45.17;12.56
73103;BME280;61294;65.988;29.172;2023-06-24T12:58:43;98314.28;;;45.25;13.14
73103;BME280;61294;65.988;29.172;2023-06-24T13:01:12;98321.31;;;45.98;12.90
73103;BME280;61294;65.988;29.172;2023-06-24T13:03:38;98333.03;;;40.09;16.36
73103;BME280;61294;65.988;29.172;2023-06-24T13:06:04;98331.50;;;36.29;18.70
73103;BME280;61294;65.988;29.172;2023-06-24T13:08:32;98322.09;;;38.44;17.48